createdAt,value
2022-12-11T00:00:22.177Z,16.73
2022-12-11T00:02:49.435Z,17.10
2022-12-11T00:05:16.427Z,16.03
2022-12-11T00:07:43.432Z,15.63
2022-12-11T00:10:10.282Z,16.20
2022-12-11T00:12:37.128Z,16.03
2022-12-11T00:15:04.236Z,16.93
2022-12-11T00:17:31.053Z,17.13
2022-12-11T00:19:57.898Z,16.70
2022-12-11T00:22:24.732Z,17.20
2022-12-11T00:24:51.937Z,16.17
2022-12-11T00:27:18.743Z,16.40
2022-12-11T00:29:45.664Z,17.23
2022-12-11T00:32:12.548Z,15.87
2022-12-11T00:34:40.568Z,16.83
2022-12-11T00:37:07.464Z,16.83
2022-12-11T00:39:34.257Z,17.23
2022-12-11T00:42:01.042Z,16.60
2022-12-11T00:44:28.011Z,17.33
2022-12-11T00:46:54.803Z,16.37
2022-12-11T00:49:21.650Z,17.23
2022-12-11T00:51:48.467Z,17.40
2022-12-11T00:54:15.326Z,17.43
2022-12-11T00:56:42.798Z,17.57
2022-12-11T00:59:09.926Z,17.67
2022-12-11T01:01:36.741Z,17.57
2022-12-11T01:04:03.586Z,17.30
2022-12-11T01:06:30.511Z,17.47
2022-12-11T01:09:16.129Z,16.63
2022-12-11T01:11:43.422Z,17.80
2022-12-11T01:14:11.513Z,16.40
2022-12-11T01:16:38.634Z,17.60
2022-12-11T01:19:05.439Z,16.70
2022-12-11T01:21:32.355Z,16.27
2022-12-11T01:23:59.227Z,17.60
2022-12-11T01:26:26.072Z,16.53
2022-12-11T01:28:52.926Z,17.87
2022-12-11T01:31:21.067Z,17.77
2022-12-11T01:33:48.160Z,17.17
2022-12-11T01:36:20.623Z,17.23
2022-12-11T01:38:48.873Z,17.40
2022-12-11T01:41:17.573Z,17.67
2022-12-11T01:44:06.783Z,17.23
2022-12-11T01:46:36.185Z,16.53
2022-12-11T01:49:07.316Z,17.53
2022-12-11T01:51:39.714Z,17.30
2022-12-11T01:54:10.953Z,17.13
2022-12-11T01:56:39.786Z,16.77
2022-12-11T01:59:09.467Z,16.87
2022-12-11T02:01:54.236Z,16.50
2022-12-11T02:04:21.385Z,15.83
2022-12-11T02:06:50.372Z,17.07
2022-12-11T02:09:22.092Z,16.30
2022-12-11T02:12:10.414Z,15.77
2022-12-11T02:14:51.234Z,15.73
2022-12-11T02:17:23.585Z,15.47
2022-12-11T02:19:58.302Z,14.90
2022-12-11T02:22:47.122Z,15.60
2022-12-11T02:25:40.537Z,15.50
2022-12-11T02:28:25.505Z,15.00
2022-12-11T02:30:59.230Z,15.47
2022-12-11T02:33:43.973Z,14.63
2022-12-11T02:36:13.202Z,15.33
2022-12-11T02:38:43.147Z,15.07
2022-12-11T02:41:12.105Z,14.57
2022-12-11T02:43:40.415Z,15.27
2022-12-11T02:46:08.292Z,15.27
2022-12-11T02:48:37.150Z,14.60
2022-12-11T02:51:06.698Z,15.00
2022-12-11T02:53:37.576Z,15.77
2022-12-11T02:56:12.619Z,15.40
2022-12-11T02:58:48.009Z,15.00
2022-12-11T03:01:15.120Z,14.90
2022-12-11T03:03:42.269Z,15.73
2022-12-11T03:06:14.048Z,14.87
2022-12-11T03:08:40.843Z,15.40
2022-12-11T03:11:11.833Z,14.30
2022-12-11T03:13:42.145Z,14.10
2022-12-11T03:16:35.232Z,14.03
2022-12-11T03:19:36.036Z,14.07
2022-12-11T03:22:15.630Z,14.63
2022-12-11T03:24:58.408Z,14.23
2022-12-11T03:27:45.046Z,14.20
2022-12-11T03:30:18.358Z,13.50
2022-12-11T03:33:08.520Z,13.50
2022-12-11T03:35:41.602Z,14.47
2022-12-11T03:38:34.201Z,13.00
2022-12-11T03:41:03.970Z,13.20
2022-12-11T03:43:32.252Z,13.77
2022-12-11T03:46:00.601Z,13.00
2022-12-11T03:48:35.947Z,13.23
2022-12-11T03:51:06.672Z,13.27
2022-12-11T03:53:35.418Z,13.23
2022-12-11T03:56:05.371Z,13.23
2022-12-11T03:58:32.485Z,13.27
2022-12-11T04:00:59.468Z,13.70
2022-12-11T04:03:26.400Z,13.63
2022-12-11T04:05:55.529Z,13.93
2022-12-11T04:08:23.389Z,13.10
2022-12-11T04:11:11.078Z,14.63
2022-12-11T04:13:38.894Z,13.50
2022-12-11T04:16:06.333Z,14.30
2022-12-11T04:18:51.755Z,14.40
2022-12-11T04:21:39.645Z,14.03
2022-12-11T04:24:16.471Z,13.53
2022-12-11T04:26:47.470Z,14.30
2022-12-11T04:29:15.480Z,13.37
2022-12-11T04:31:42.318Z,13.50
2022-12-11T04:34:09.307Z,14.00
2022-12-11T04:36:36.182Z,13.97
2022-12-11T04:39:05.248Z,14.00
2022-12-11T04:41:32.196Z,14.20
2022-12-11T04:43:59.029Z,13.50
2022-12-11T04:46:26.071Z,14.43
2022-12-11T04:48:57.255Z,13.27
2022-12-11T04:51:25.141Z,12.77
2022-12-11T04:53:52.139Z,12.50
2022-12-11T04:56:19.066Z,12.00
2022-12-11T04:58:48.346Z,12.90
2022-12-11T05:01:20.912Z,13.27
2022-12-11T05:03:48.332Z,12.50
2022-12-11T05:06:15.506Z,12.13
2022-12-11T05:08:43.290Z,12.33
2022-12-11T05:11:12.345Z,11.83
2022-12-11T05:13:39.833Z,12.93
2022-12-11T05:16:11.036Z,12.57
2022-12-11T05:18:38.308Z,12.50
2022-12-11T05:21:08.334Z,11.70
2022-12-11T05:23:35.186Z,11.77
2022-12-11T05:26:06.222Z,12.83
2022-12-11T05:28:35.903Z,12.10
2022-12-11T05:31:09.091Z,12.83
2022-12-11T05:33:36.149Z,13.70
2022-12-11T05:36:03.860Z,13.13
2022-12-11T05:38:30.896Z,13.13
2022-12-11T05:40:59.592Z,12.63
2022-12-11T05:43:28.425Z,12.73
2022-12-11T05:45:55.635Z,12.87
2022-12-11T05:48:22.544Z,13.90
2022-12-11T05:50:59.701Z,13.43
2022-12-11T05:53:26.981Z,13.23
2022-12-11T05:55:53.915Z,13.20
2022-12-11T05:58:21.520Z,13.17
2022-12-11T06:00:48.678Z,12.90
2022-12-11T06:03:15.985Z,13.57
2022-12-11T06:05:43.492Z,12.53
2022-12-11T06:08:10.480Z,13.17
2022-12-11T06:10:37.364Z,12.87
2022-12-11T06:13:04.435Z,13.53
2022-12-11T06:15:32.264Z,12.97
2022-12-11T06:17:59.035Z,12.20
2022-12-11T06:20:25.839Z,12.07
2022-12-11T06:22:52.615Z,12.57
2022-12-11T06:25:19.349Z,11.90
2022-12-11T06:27:46.132Z,12.23
2022-12-11T06:30:13.310Z,12.67
2022-12-11T06:32:40.127Z,12.30
2022-12-11T06:35:07.138Z,12.30
2022-12-11T06:37:35.853Z,12.47
2022-12-11T06:40:04.125Z,12.80
2022-12-11T06:42:31.620Z,12.50
2022-12-11T06:44:59.812Z,12.27
2022-12-11T06:47:27.948Z,13.27
2022-12-11T06:49:55.181Z,11.90
2022-12-11T06:52:23.171Z,12.67
2022-12-11T06:54:50.153Z,13.57
2022-12-11T06:57:17.610Z,13.70
2022-12-11T06:59:44.434Z,13.67
2022-12-11T07:02:16.244Z,13.93
2022-12-11T07:04:43.552Z,13.60
2022-12-11T07:07:11.303Z,16.10
2022-12-11T07:09:40.102Z,16.27
2022-12-11T07:12:07.329Z,15.90
2022-12-11T07:14:34.361Z,15.80
2022-12-11T07:17:01.199Z,15.23
2022-12-11T07:19:28.048Z,14.77
2022-12-11T07:21:54.867Z,14.63
2022-12-11T07:24:22.069Z,14.50
2022-12-11T07:26:48.917Z,14.53
2022-12-11T07:29:15.700Z,14.40
2022-12-11T07:31:42.671Z,14.63
2022-12-11T07:34:12.960Z,14.07
2022-12-11T07:36:40.326Z,14.90
2022-12-11T07:39:09.026Z,15.33
2022-12-11T07:41:35.884Z,14.70
2022-12-11T07:44:03.547Z,16.50
2022-12-11T07:46:32.998Z,17.00
2022-12-11T07:49:03.447Z,17.13
2022-12-11T07:51:32.939Z,17.83
2022-12-11T07:54:10.684Z,17.73
2022-12-11T07:56:37.502Z,19.27
2022-12-11T07:59:05.950Z,18.87
2022-12-11T08:01:36.587Z,18.73
2022-12-11T08:04:09.815Z,16.47
2022-12-11T08:06:38.594Z,17.13
2022-12-11T08:09:07.956Z,16.30
2022-12-11T08:11:35.312Z,16.07
2022-12-11T08:14:02.665Z,15.63
2022-12-11T08:16:29.874Z,15.50
2022-12-11T08:18:57.669Z,15.80
2022-12-11T08:21:26.704Z,14.93
2022-12-11T08:23:57.943Z,15.77
2022-12-11T08:26:27.526Z,15.17
2022-12-11T08:28:54.497Z,15.43
2022-12-11T08:31:21.703Z,15.93
2022-12-11T08:33:49.531Z,16.07
2022-12-11T08:36:19.706Z,17.03
2022-12-11T08:38:47.086Z,17.83
2022-12-11T08:41:17.110Z,18.00
2022-12-11T08:43:44.274Z,16.53
2022-12-11T08:46:12.362Z,16.00
2022-12-11T08:48:40.425Z,17.30
2022-12-11T08:51:10.868Z,16.60
2022-12-11T08:53:38.944Z,16.27
2022-12-11T08:56:14.879Z,16.40
2022-12-11T08:58:42.242Z,16.27
2022-12-11T09:01:13.238Z,23.87
2022-12-11T09:03:40.780Z,31.03
2022-12-11T09:06:13.046Z,31.33
2022-12-11T09:08:40.617Z,28.13
2022-12-11T09:11:13.171Z,23.73
2022-12-11T09:13:40.699Z,23.00
2022-12-11T09:16:16.316Z,30.40
2022-12-11T09:18:46.166Z,27.60
2022-12-11T09:21:15.017Z,23.83
2022-12-11T09:23:41.996Z,20.37
2022-12-11T09:26:12.375Z,20.33
2022-12-11T09:28:45.787Z,26.23
2022-12-11T09:31:19.109Z,24.73
2022-12-11T09:33:46.517Z,24.67
2022-12-11T09:36:13.385Z,24.13
2022-12-11T09:38:40.269Z,24.50
2022-12-11T09:41:22.388Z,23.80
2022-12-11T09:43:59.463Z,22.73
2022-12-11T09:46:33.587Z,24.03
2022-12-11T09:49:09.885Z,23.20
2022-12-11T09:51:49.497Z,21.13
2022-12-11T09:54:16.273Z,20.77
2022-12-11T09:56:50.142Z,20.80
2022-12-11T09:59:19.776Z,21.13
2022-12-11T10:01:50.855Z,20.37
2022-12-11T10:04:29.657Z,20.10
2022-12-11T10:07:13.421Z,22.33
2022-12-11T10:09:43.131Z,20.60
2022-12-11T10:12:31.558Z,18.83
2022-12-11T10:15:35.236Z,18.87
2022-12-11T10:18:05.284Z,18.43
2022-12-11T10:20:39.277Z,19.90
2022-12-11T10:23:08.968Z,27.93
2022-12-11T10:25:58.610Z,23.07
2022-12-11T10:28:27.949Z,23.33
2022-12-11T10:31:10.967Z,31.63
2022-12-11T10:34:01.252Z,41.63
2022-12-11T10:36:31.497Z,29.40
2022-12-11T10:39:02.903Z,26.10
2022-12-11T10:41:39.048Z,32.73
2022-12-11T10:44:35.268Z,28.17
2022-12-11T10:47:06.485Z,22.30
2022-12-11T10:49:35.273Z,20.40
2022-12-11T10:52:09.335Z,20.67
2022-12-11T10:54:39.381Z,20.23
2022-12-11T10:57:08.939Z,21.57
2022-12-11T10:59:54.801Z,20.70
2022-12-11T11:02:41.310Z,19.10
2022-12-11T11:05:35.530Z,18.60
2022-12-11T11:08:15.345Z,16.57
2022-12-11T11:10:54.644Z,16.30
2022-12-11T11:13:24.186Z,14.90
2022-12-11T11:16:06.684Z,14.77
2022-12-11T11:18:34.421Z,16.10
2022-12-11T11:21:02.416Z,19.53
2022-12-11T11:23:29.570Z,18.77
2022-12-11T11:25:59.459Z,18.90
2022-12-11T11:28:30.619Z,16.70
2022-12-11T11:31:02.191Z,16.53
2022-12-11T11:33:30.996Z,16.23
2022-12-11T11:36:22.684Z,17.10
2022-12-11T11:39:02.629Z,16.83
2022-12-11T11:41:31.727Z,16.77
2022-12-11T11:44:02.410Z,15.63
2022-12-11T11:46:44.153Z,15.40
2022-12-11T11:49:19.077Z,15.03
2022-12-11T11:51:51.455Z,14.20
2022-12-11T11:54:21.341Z,14.63
2022-12-11T11:56:54.088Z,13.07
2022-12-11T11:59:32.175Z,13.87
2022-12-11T12:01:59.648Z,13.63
2022-12-11T12:04:35.025Z,14.07
2022-12-11T12:07:07.729Z,12.73
2022-12-11T12:09:54.171Z,13.10
2022-12-11T12:12:55.389Z,13.53
2022-12-11T12:15:27.755Z,12.87
2022-12-11T12:18:25.128Z,13.30
2022-12-11T12:21:03.619Z,14.03
2022-12-11T12:23:36.306Z,14.87
2022-12-11T12:26:13.944Z,13.40
2022-12-11T12:28:51.987Z,15.60
2022-12-11T12:31:48.527Z,16.13
2022-12-11T12:34:39.818Z,16.43
2022-12-11T12:37:13.541Z,16.40
2022-12-11T12:39:52.558Z,16.30
2022-12-11T12:42:42.862Z,18.00
2022-12-11T12:45:15.684Z,21.87
2022-12-11T12:47:46.740Z,19.87
2022-12-11T12:50:26.717Z,19.17
2022-12-11T12:52:55.251Z,20.53
2022-12-11T12:55:31.799Z,22.17
2022-12-11T12:58:00.939Z,20.23
2022-12-11T13:00:33.659Z,20.30
2022-12-11T13:03:29.181Z,18.40
2022-12-11T13:05:59.137Z,17.80
2022-12-11T13:08:47.469Z,17.00
2022-12-11T13:11:18.201Z,17.67
2022-12-11T13:14:01.018Z,18.00
2022-12-11T13:16:40.191Z,17.60
2022-12-11T13:19:27.081Z,19.97
2022-12-11T13:22:12.411Z,21.43
2022-12-11T13:24:59.589Z,20.60
2022-12-11T13:27:42.781Z,20.47
2022-12-11T13:30:15.631Z,20.83
2022-12-11T13:32:54.773Z,20.83
2022-12-11T13:35:21.656Z,21.43
2022-12-11T13:37:52.043Z,22.67
2022-12-11T13:40:25.614Z,18.70
2022-12-11T13:43:00.640Z,19.70
2022-12-11T13:45:29.672Z,18.60
2022-12-11T13:47:58.296Z,16.87
2022-12-11T13:50:32.158Z,16.40
2022-12-11T13:53:01.857Z,18.57
2022-12-11T13:55:35.924Z,19.03
2022-12-11T13:58:02.717Z,18.97
2022-12-11T14:00:32.981Z,20.80
2022-12-11T14:03:04.816Z,21.03
2022-12-11T14:05:31.910Z,21.87
2022-12-11T14:08:03.911Z,21.17
2022-12-11T14:10:32.705Z,18.67
2022-12-11T14:12:59.514Z,19.20
2022-12-11T14:15:28.118Z,18.30
2022-12-11T14:17:55.883Z,19.03
2022-12-11T14:20:25.913Z,19.17
2022-12-11T14:22:52.741Z,18.50
2022-12-11T14:25:25.889Z,18.20
2022-12-11T14:27:56.902Z,17.67
2022-12-11T14:30:31.577Z,16.83
2022-12-11T14:33:04.934Z,17.03
2022-12-11T14:35:40.129Z,16.80
2022-12-11T14:38:24.306Z,16.50
2022-12-11T14:40:56.451Z,15.70
2022-12-11T14:43:35.953Z,16.00
2022-12-11T14:46:10.824Z,15.07
2022-12-11T14:48:46.817Z,15.47
2022-12-11T14:51:17.740Z,15.77
2022-12-11T14:53:48.721Z,16.77
2022-12-11T14:56:25.647Z,17.20
2022-12-11T14:59:02.584Z,19.57
2022-12-11T15:01:32.745Z,20.27
2022-12-11T15:04:24.557Z,20.77
2022-12-11T15:06:52.193Z,24.20
2022-12-11T15:09:26.698Z,27.50
2022-12-11T15:11:56.999Z,28.23
2022-12-11T15:14:25.189Z,28.53
2022-12-11T15:16:54.718Z,25.90
2022-12-11T15:19:29.860Z,25.17
2022-12-11T15:22:05.590Z,24.23
2022-12-11T15:24:40.030Z,24.30
2022-12-11T15:27:23.881Z,28.27
2022-12-11T15:29:50.708Z,27.17
2022-12-11T15:32:19.845Z,24.80
2022-12-11T15:34:55.919Z,24.30
2022-12-11T15:37:32.031Z,36.13
2022-12-11T15:40:04.585Z,26.43
2022-12-11T15:42:36.726Z,26.13
2022-12-11T15:45:06.868Z,31.23
2022-12-11T15:47:33.686Z,29.37
2022-12-11T15:50:07.629Z,26.90
2022-12-11T15:52:34.651Z,25.93
2022-12-11T15:55:01.471Z,23.90
2022-12-11T15:57:28.467Z,25.83
2022-12-11T15:59:56.089Z,25.77
2022-12-11T16:02:24.389Z,22.07
2022-12-11T16:04:51.212Z,19.93
2022-12-11T16:07:26.277Z,20.03
2022-12-11T16:09:53.701Z,20.43
2022-12-11T16:12:20.558Z,19.30
2022-12-11T16:14:47.437Z,18.60
2022-12-11T16:17:15.497Z,18.27
2022-12-11T16:19:43.239Z,16.83
2022-12-11T16:22:11.623Z,18.07
2022-12-11T16:24:39.571Z,17.23
2022-12-11T16:27:07.520Z,18.20
2022-12-11T16:29:38.737Z,18.03
2022-12-11T16:32:08.183Z,18.70
2022-12-11T16:34:36.401Z,17.63
2022-12-11T16:37:04.342Z,18.33
2022-12-11T16:39:31.225Z,18.73
2022-12-11T16:41:58.161Z,18.17
2022-12-11T16:44:27.417Z,17.73
2022-12-11T16:46:54.828Z,16.80
2022-12-11T16:49:22.334Z,17.83
2022-12-11T16:51:49.688Z,17.13
2022-12-11T16:54:17.345Z,17.17
2022-12-11T16:56:44.764Z,16.37
2022-12-11T16:59:12.851Z,16.30
2022-12-11T17:01:40.021Z,16.47
2022-12-11T17:04:07.033Z,17.63
2022-12-11T17:06:33.955Z,17.03
2022-12-11T17:09:00.835Z,17.47
2022-12-11T17:11:27.826Z,17.43
2022-12-11T17:13:56.628Z,18.43
2022-12-11T17:16:26.078Z,16.93
2022-12-11T17:18:53.541Z,15.97
2022-12-11T17:21:22.300Z,15.93
2022-12-11T17:23:50.484Z,15.60
2022-12-11T17:26:18.298Z,15.63
2022-12-11T17:28:45.256Z,15.03
2022-12-11T17:31:18.254Z,15.63
2022-12-11T17:33:46.170Z,13.77
2022-12-11T17:36:15.517Z,15.27
2022-12-11T17:38:42.438Z,16.63
2022-12-11T17:41:15.497Z,17.03
2022-12-11T17:43:48.166Z,15.43
2022-12-11T17:46:15.077Z,14.93
2022-12-11T17:48:43.051Z,14.87
2022-12-11T17:51:13.162Z,14.23
2022-12-11T17:53:40.302Z,15.63
2022-12-11T17:56:08.430Z,15.20
2022-12-11T17:58:35.644Z,13.90
2022-12-11T18:01:07.897Z,14.10
2022-12-11T18:03:35.299Z,12.53
2022-12-11T18:06:14.373Z,14.60
2022-12-11T18:08:42.007Z,14.17
2022-12-11T18:11:15.298Z,12.93
2022-12-11T18:13:43.718Z,13.93
2022-12-11T18:16:26.082Z,14.63
2022-12-11T18:18:53.543Z,13.60
2022-12-11T18:21:24.273Z,14.27
2022-12-11T18:23:51.517Z,13.63
2022-12-11T18:26:19.359Z,13.97
2022-12-11T18:28:46.931Z,14.27
2022-12-11T18:31:14.223Z,15.23
2022-12-11T18:33:43.280Z,14.37
2022-12-11T18:36:11.570Z,14.00
2022-12-11T18:38:38.797Z,15.83
2022-12-11T18:41:08.084Z,14.33
2022-12-11T18:43:36.940Z,14.23
2022-12-11T18:46:10.710Z,13.93
2022-12-11T18:48:37.753Z,14.27
2022-12-11T18:51:09.926Z,14.60
2022-12-11T18:53:39.223Z,14.13
2022-12-11T18:56:15.957Z,13.33
2022-12-11T18:58:43.462Z,13.70
2022-12-11T19:01:16.110Z,13.17
2022-12-11T19:03:43.987Z,13.93
2022-12-11T19:06:14.329Z,14.20
2022-12-11T19:08:41.544Z,14.03
2022-12-11T19:11:09.045Z,14.10
2022-12-11T19:13:36.260Z,13.00
2022-12-11T19:16:03.303Z,14.00
2022-12-11T19:18:30.229Z,14.20
2022-12-11T19:21:08.048Z,13.60
2022-12-11T19:23:36.445Z,13.23
2022-12-11T19:26:03.524Z,14.60
2022-12-11T19:28:31.099Z,14.73
2022-12-11T19:30:57.976Z,15.30
2022-12-11T19:33:24.844Z,15.77
2022-12-11T19:36:01.230Z,16.43
2022-12-11T19:38:28.037Z,15.40
2022-12-11T19:40:54.856Z,16.23
2022-12-11T19:43:21.657Z,14.77
2022-12-11T19:45:48.649Z,14.87
2022-12-11T19:48:15.481Z,14.60
2022-12-11T19:50:42.270Z,13.63
2022-12-11T19:53:09.053Z,14.10
2022-12-11T19:55:35.807Z,14.93
2022-12-11T19:58:02.622Z,14.93
2022-12-11T20:00:29.455Z,16.33
2022-12-11T20:02:56.337Z,16.03
2022-12-11T20:05:23.184Z,15.83
2022-12-11T20:07:50.046Z,15.97
2022-12-11T20:10:16.992Z,15.90
2022-12-11T20:12:43.820Z,15.80
2022-12-11T20:15:11.594Z,17.23
2022-12-11T20:17:43.236Z,15.87
2022-12-11T20:20:10.870Z,15.97
2022-12-11T20:22:37.784Z,16.20
2022-12-11T20:25:04.918Z,17.10
2022-12-11T20:27:31.900Z,17.60
2022-12-11T20:29:58.727Z,16.37
2022-12-11T20:32:25.736Z,16.53
2022-12-11T20:34:56.378Z,16.33
2022-12-11T20:37:25.997Z,15.27
2022-12-11T20:39:53.493Z,15.77
2022-12-11T20:42:20.719Z,15.83
2022-12-11T20:44:49.341Z,15.37
2022-12-11T20:47:19.588Z,16.03
2022-12-11T20:49:47.775Z,15.70
2022-12-11T20:52:14.764Z,15.73
2022-12-11T20:54:41.658Z,15.10
2022-12-11T20:57:08.504Z,15.20
2022-12-11T20:59:35.352Z,15.07
2022-12-11T21:02:02.259Z,15.70
2022-12-11T21:04:29.198Z,15.80
2022-12-11T21:06:56.197Z,14.83
2022-12-11T21:09:25.756Z,14.73
2022-12-11T21:11:52.998Z,14.27
2022-12-11T21:14:20.028Z,14.77
2022-12-11T21:16:47.428Z,16.27
2022-12-11T21:19:17.435Z,16.57
2022-12-11T21:21:45.310Z,16.07
2022-12-11T21:24:26.484Z,18.13
2022-12-11T21:26:55.939Z,18.20
2022-12-11T21:29:24.566Z,17.47
2022-12-11T21:31:51.795Z,19.10
2022-12-11T21:34:25.068Z,18.17
2022-12-11T21:36:56.557Z,17.13
2022-12-11T21:39:25.391Z,18.10
2022-12-11T21:41:52.879Z,17.37
2022-12-11T21:47:06.562Z,17.20
2022-12-11T21:49:33.463Z,16.93
2022-12-11T21:52:00.400Z,17.13
2022-12-11T21:54:27.269Z,16.73
2022-12-11T21:56:54.641Z,15.73
2022-12-11T21:59:21.619Z,16.63
2022-12-11T22:01:48.478Z,16.90
2022-12-11T22:04:15.847Z,16.97
2022-12-11T22:06:43.663Z,16.43
2022-12-11T22:09:12.451Z,15.63
2022-12-11T22:11:40.197Z,15.50
2022-12-11T22:14:07.496Z,15.83
2022-12-11T22:16:35.154Z,15.60
2022-12-11T22:19:02.075Z,16.33
2022-12-11T22:21:29.356Z,16.43
2022-12-11T22:23:56.210Z,15.70
2022-12-11T22:26:25.481Z,15.37
2022-12-11T22:28:52.956Z,15.93
2022-12-11T22:31:22.577Z,15.70
2022-12-11T22:33:51.237Z,16.00
2022-12-11T22:36:18.953Z,15.47
2022-12-11T22:38:46.397Z,15.90
2022-12-11T22:41:28.528Z,15.33
2022-12-11T22:43:56.953Z,16.60
2022-12-11T22:46:26.750Z,16.37
2022-12-11T22:48:53.691Z,16.20
2022-12-11T22:51:21.386Z,15.80
2022-12-11T22:53:48.246Z,15.60
2022-12-11T22:56:15.037Z,15.13
2022-12-11T22:58:42.357Z,14.97
2022-12-11T23:01:11.958Z,15.17
2022-12-11T23:03:39.096Z,14.50
2022-12-11T23:06:08.808Z,14.17
2022-12-11T23:08:36.219Z,12.87
2022-12-11T23:11:09.920Z,13.40
2022-12-11T23:13:36.726Z,13.13
2022-12-11T23:16:03.835Z,13.33
2022-12-11T23:18:30.624Z,14.07
2022-12-11T23:20:57.480Z,13.50
2022-12-11T23:23:24.863Z,13.23
2022-12-11T23:25:51.751Z,12.00
2022-12-11T23:28:19.759Z,11.57
2022-12-11T23:30:47.049Z,12.73
2022-12-11T23:33:14.121Z,12.33
2022-12-11T23:35:40.906Z,12.27
2022-12-11T23:38:08.241Z,11.80
2022-12-11T23:40:35.220Z,11.37
2022-12-11T23:43:02.051Z,12.10
2022-12-11T23:45:28.841Z,11.30
2022-12-11T23:47:55.969Z,11.57
2022-12-11T23:50:25.508Z,12.27
2022-12-11T23:52:52.615Z,12.03
2022-12-11T23:55:19.582Z,11.93
2022-12-11T23:57:46.414Z,12.40
